Time;durP1;ratioP1;P1;durP2;ratioP2;P2;SDS_P1;SDS_P2;PMS_P1;PMS_P2;Temp;Humidity;BMP_temperature;BMP_pressure;BME280_temperature;BME280_humidity;BME280_pressure;Samples;Min_cycle;Max_cycle;Signal;HPM_P1;HPM_P2
2021/07/04 00:02:25;;;;;;;;;0.00;0.00;;;;;22.68;56.59;100650.03;5041858;28;45239;-64
2021/07/04 00:04:50;;;;;;;;;0.00;0.00;;;;;22.66;56.16;100652.09;5049318;28;46128;-63
2021/07/04 00:07:15;;;;;;;;;0.00;0.00;;;;;22.66;56.68;100650.25;5041583;28;45155;-63
2021/07/04 00:09:41;;;;;;;;;0.00;0.00;;;;;22.64;56.76;100654.97;5041793;28;45213;-63
2021/07/04 00:12:08;;;;;;;;;0.00;0.00;;;;;22.63;57.06;100655.97;5041655;28;45573;-63
2021/07/04 00:14:34;;;;;;;;;0.00;0.00;;;;;22.61;56.65;100641.97;5041473;28;45370;-63
2021/07/04 00:16:59;;;;;;;;;0.00;0.00;;;;;22.64;57.10;100646.13;5041112;28;45326;-64
2021/07/04 00:19:25;;;;;;;;;0.00;0.00;;;;;22.64;57.00;100636.22;5041870;28;45498;-63
2021/07/04 00:21:50;;;;;;;;;0.00;0.00;;;;;22.67;57.20;100648.38;5041356;28;45248;-64
2021/07/04 00:24:16;;;;;;;;;0.00;0.00;;;;;22.68;56.87;100639.34;5041268;28;46566;-64
2021/07/04 00:26:41;;;;;;;;;0.00;0.00;;;;;22.71;56.92;100642.41;5040898;28;45189;-62
2021/07/04 00:29:07;;;;;;;;;0.00;0.00;;;;;22.77;56.75;100642.66;5041391;28;45227;-63
2021/07/04 00:31:33;;;;;;;;;0.00;0.00;;;;;22.80;56.57;100635.03;5040999;28;45622;-63
2021/07/04 00:33:59;;;;;;;;;0.00;0.00;;;;;22.84;56.23;100636.28;5041286;28;45371;-63
2021/07/04 00:36:24;;;;;;;;;0.00;0.00;;;;;22.86;56.21;100628.88;5039685;28;45278;-64
2021/07/04 00:38:50;;;;;;;;;0.00;0.00;;;;;22.87;56.11;100624.31;5040962;28;45217;-64
2021/07/04 00:41:15;;;;;;;;;0.00;0.00;;;;;22.86;56.36;100623.50;5039599;28;45420;-64
2021/07/04 00:43:43;;;;;;;;;0.00;0.00;;;;;22.87;56.55;100619.81;5040847;28;45582;-64
2021/07/04 00:46:08;;;;;;;;;0.00;0.00;;;;;22.85;56.01;100618.34;5040767;28;45315;-64
2021/07/04 00:48:34;;;;;;;;;0.00;0.00;;;;;22.80;56.23;100612.78;5041438;28;45421;-63
2021/07/04 00:51:00;;;;;;;;;0.00;0.00;;;;;22.78;56.76;100617.53;5033902;28;45440;-64
2021/07/04 00:53:25;;;;;;;;;0.00;0.00;;;;;22.73;56.63;100613.59;5040732;28;46545;-63
2021/07/04 00:55:51;;;;;;;;;0.00;0.00;;;;;22.68;56.18;100621.41;5053922;28;45669;-63
2021/07/04 00:58:16;;;;;;;;;0.00;0.00;;;;;22.68;56.76;100618.75;5040808;28;45329;-64
2021/07/04 01:00:42;;;;;;;;;0.00;0.00;;;;;22.66;56.57;100609.25;5034245;28;45180;-64
2021/07/04 01:03:07;;;;;;;;;0.00;0.00;;;;;22.63;56.52;100610.47;5043069;28;45351;-63
2021/07/04 01:05:38;;;;;;;;;0.00;0.00;;;;;22.60;56.82;100612.75;5039115;28;45201;-64
2021/07/04 01:08:04;;;;;;;;;0.00;0.00;;;;;22.58;56.46;100614.78;5023267;28;45353;-64
2021/07/04 01:10:31;;;;;;;;;0.00;0.00;;;;;22.52;57.16;100603.84;5039531;28;45470;-63
2021/07/04 01:12:59;;;;;;;;;0.00;0.00;;;;;22.49;56.99;100608.78;5040374;28;46485;-64
2021/07/04 01:15:27;;;;;;;;;0.00;0.00;;;;;22.46;57.42;100596.66;5040549;28;45348;-64
2021/07/04 01:17:55;;;;;;;;;0.00;0.00;;;;;22.43;57.26;100593.53;5041085;28;45390;-63
2021/07/04 01:20:22;;;;;;;;;0.00;0.00;;;;;22.39;57.33;100598.44;5022427;28;45341;-63
2021/07/04 01:22:58;;;;;;;;;0.00;0.00;;;;;22.40;57.04;100596.63;5040704;28;45385;-63
2021/07/04 01:25:25;;;;;;;;;0.00;0.00;;;;;22.37;57.39;100591.66;5039926;28;46308;-63
2021/07/04 01:27:50;;;;;;;;;0.00;0.00;;;;;22.34;57.29;100592.88;5040756;28;45305;-63
2021/07/04 01:30:16;;;;;;;;;0.00;0.00;;;;;22.32;57.61;100585.06;5040513;28;45255;-63
2021/07/04 01:32:42;;;;;;;;;0.00;0.00;;;;;22.29;57.62;100590.00;5040185;28;46485;-63
2021/07/04 01:35:08;;;;;;;;;0.00;0.00;;;;;22.27;57.88;100595.53;5040420;28;45647;-64
2021/07/04 01:37:33;;;;;;;;;0.00;0.00;;;;;22.26;57.71;100595.72;5040648;28;45345;-64
2021/07/04 01:39:59;;;;;;;;;0.00;0.00;;;;;22.21;58.01;100596.31;5040317;28;45436;-64
2021/07/04 01:42:24;;;;;;;;;0.00;0.00;;;;;22.17;57.65;100589.69;5029625;28;47000;-63
2021/07/04 01:44:49;;;;;;;;;1.00;1.00;;;;;22.13;58.24;100596.47;5036627;28;45655;-63
2021/07/04 01:47:15;;;;;;;;;0.00;0.00;;;;;22.12;58.43;100590.28;5051500;28;45426;-63
2021/07/04 01:49:40;;;;;;;;;0.00;0.00;;;;;22.06;58.68;100591.09;5060530;28;45290;-63
2021/07/04 01:52:06;;;;;;;;;0.00;0.00;;;;;22.04;59.71;100594.97;5041896;28;48491;-63
2021/07/04 01:54:32;;;;;;;;;0.00;0.00;;;;;21.94;59.78;100587.31;5042683;28;45623;-63
2021/07/04 01:56:57;;;;;;;;;0.00;0.00;;;;;21.87;60.46;100591.81;5033187;28;45359;-63
2021/07/04 01:59:23;;;;;;;;;0.00;0.00;;;;;21.79;60.78;100582.09;5023801;28;45236;-63
2021/07/04 02:01:48;;;;;;;;;0.00;0.00;;;;;21.70;60.87;100588.59;5022347;28;48045;-63
2021/07/04 02:04:14;;;;;;;;;0.00;0.00;;;;;21.63;60.98;100595.75;5029766;28;45718;-63
2021/07/04 02:06:39;;;;;;;;;0.00;0.00;;;;;21.59;61.39;100589.16;5024048;28;45330;-64
2021/07/04 02:09:04;;;;;;;;;0.00;0.00;;;;;21.50;61.17;100591.16;5023747;28;45579;-64
2021/07/04 02:11:30;;;;;;;;;0.00;0.00;;;;;21.44;61.24;100586.59;5023345;28;46498;-64
2021/07/04 02:13:55;;;;;;;;;0.00;0.00;;;;;21.41;61.77;100590.47;5038459;28;46607;-63
2021/07/04 02:16:20;;;;;;;;;0.00;0.00;;;;;21.42;61.67;100584.09;5038995;28;45248;-64
2021/07/04 02:18:50;;;;;;;;;0.00;0.00;;;;;21.47;61.46;100586.22;5022666;28;45476;-63
2021/07/04 02:21:16;;;;;;;;;0.00;0.00;;;;;21.49;61.45;100582.31;5023588;28;45322;-64
2021/07/04 02:23:41;;;;;;;;;0.00;0.00;;;;;21.48;61.46;100574.50;5026420;28;45254;-64
2021/07/04 02:26:06;;;;;;;;;0.00;0.00;;;;;21.48;61.64;100579.84;5021918;28;45215;-64
2021/07/04 02:28:32;;;;;;;;;0.00;0.00;;;;;21.46;61.92;100576.53;5023359;28;45461;-63
2021/07/04 02:30:58;;;;;;;;;0.00;0.00;;;;;21.46;61.80;100571.19;5023477;28;45334;-64
2021/07/04 02:33:26;;;;;;;;;0.00;0.00;;;;;21.48;61.54;100577.16;5024010;28;45324;-63
2021/07/04 02:35:57;;;;;;;;;0.00;0.00;;;;;21.50;61.92;100569.78;5027864;28;45248;-63
2021/07/04 02:38:24;;;;;;;;;0.00;0.00;;;;;21.52;61.37;100570.41;5026565;28;45263;-64
2021/07/04 02:40:51;;;;;;;;;0.00;0.00;;;;;21.48;61.63;100567.28;5030691;28;45430;-63
2021/07/04 02:43:20;;;;;;;;;0.00;0.00;;;;;21.48;61.51;100574.50;5022797;28;45342;-63
2021/07/04 02:45:46;;;;;;;;;0.00;0.00;;;;;21.48;61.40;100574.50;5023450;28;45425;-63
2021/07/04 02:48:12;;;;;;;;;0.00;0.00;;;;;21.45;61.77;100580.22;5036473;28;45251;-64
2021/07/04 02:50:39;;;;;;;;;0.00;0.00;;;;;21.42;61.58;100576.06;5023156;28;46810;-64
2021/07/04 02:53:05;;;;;;;;;0.00;0.00;;;;;21.40;62.27;100585.28;5042584;28;45244;-63
2021/07/04 02:55:31;;;;;;;;;0.00;0.00;;;;;21.39;61.61;100581.78;5054673;28;45315;-63
2021/07/04 02:57:57;;;;;;;;;0.00;0.00;;;;;21.39;61.87;100583.66;5043776;28;45351;-63
2021/07/04 03:00:25;;;;;;;;;0.00;0.00;;;;;21.39;62.06;100576.44;5033628;28;48046;-64
2021/07/04 03:02:50;;;;;;;;;0.00;0.00;;;;;21.37;61.75;100566.97;5042201;28;45383;-63
2021/07/04 03:05:16;;;;;;;;;0.00;0.00;;;;;21.39;61.75;100571.09;5050211;28;45403;-63
2021/07/04 03:07:42;;;;;;;;;0.00;0.00;;;;;21.37;62.10;100564.31;5042802;28;45409;-62
2021/07/04 03:10:10;;;;;;;;;0.00;0.00;;;;;21.38;61.92;100569.47;5042257;28;46064;-63
2021/07/04 03:12:36;;;;;;;;;0.00;0.00;;;;;21.40;62.14;100571.91;5042208;28;45396;-63
2021/07/04 03:15:04;;;;;;;;;0.00;0.00;;;;;21.42;61.98;100569.91;5034393;28;45516;-63
2021/07/04 03:17:29;;;;;;;;;0.00;0.00;;;;;21.40;62.05;100562.06;5024729;28;45672;-63
2021/07/04 03:19:54;;;;;;;;;0.00;0.00;;;;;21.42;61.76;100557.38;5042500;28;45343;-64
2021/07/04 03:22:20;;;;;;;;;0.00;0.00;;;;;21.46;61.99;100557.81;5042269;28;45389;-64
2021/07/04 03:24:45;;;;;;;;;0.00;0.00;;;;;21.49;62.20;100546.75;5042038;28;45497;-63
2021/07/04 03:27:11;;;;;;;;;0.00;0.00;;;;;21.51;61.98;100542.00;5040512;28;45319;-64
2021/07/04 03:29:36;;;;;;;;;0.00;0.00;;;;;21.55;61.41;100542.47;5033353;28;46927;-64
2021/07/04 03:32:04;;;;;;;;;0.00;0.00;;;;;21.56;61.43;100536.13;5061323;28;45281;-64
2021/07/04 03:34:29;;;;;;;;;0.00;0.00;;;;;21.55;61.73;100540.59;5062688;28;45393;-63
2021/07/04 03:36:54;;;;;;;;;0.00;0.00;;;;;21.55;61.82;100534.44;5044230;28;45264;-63
2021/07/04 03:39:20;;;;;;;;;0.00;0.00;;;;;21.55;61.93;100534.44;5044196;28;46916;-62
2021/07/04 03:41:45;;;;;;;;;0.00;0.00;;;;;21.52;62.13;100541.00;5062013;28;45236;-63
2021/07/04 03:44:11;;;;;;;;;0.00;0.00;;;;;21.49;62.08;100539.56;5062298;28;45235;-63
2021/07/04 03:46:36;;;;;;;;;0.00;0.00;;;;;21.44;62.22;100533.97;5044295;28;45193;-63
2021/07/04 03:49:03;;;;;;;;;0.00;0.00;;;;;21.43;63.01;100536.84;5062196;28;45378;-63
2021/07/04 03:51:28;;;;;;;;;0.00;0.00;;;;;21.36;62.96;100568.84;5061947;28;45529;-63
2021/07/04 03:53:53;;;;;;;;;0.00;0.00;;;;;21.26;63.74;100566.47;5062059;28;45344;-64
2021/07/04 03:56:20;;;;;;;;;0.00;0.00;;;;;21.14;64.38;100569.88;5053096;28;45505;-62
2021/07/04 03:58:46;;;;;;;;;0.75;0.75;;;;;21.01;65.85;100563.38;5041760;28;46330;-63
2021/07/04 04:01:18;;;;;;;;;0.00;0.00;;;;;20.69;78.82;100594.94;5060688;28;45373;-63
2021/07/04 04:04:13;;;;;;;;;;;;;;;-144.08;100.00;62200.94;2274218;28;109595766;-62
2021/07/04 04:06:38;;;;;;;;;0.00;0.00;;;;;-144.08;100.00;62200.94;5044855;28;45181;-63
2021/07/04 04:09:03;;;;;;;;;0.00;0.00;;;;;-144.08;100.00;62200.94;5041840;28;45335;-62
2021/07/04 04:11:29;;;;;;;;;0.00;0.00;;;;;-144.08;100.00;62200.94;5023865;28;45463;-62
2021/07/04 04:13:54;;;;;;;;;0.00;0.00;;;;;-144.08;100.00;62200.94;5040678;28;45344;-63
2021/07/04 04:16:20;;;;;;;;;0.00;0.00;;;;;-144.08;100.00;62200.94;5030135;28;45345;-62
2021/07/04 04:18:45;;;;;;;;;0.00;0.00;;;;;-144.08;100.00;62200.94;5041777;28;45292;-62
2021/07/04 04:21:11;;;;;;;;;0.00;0.00;;;;;-144.08;100.00;62200.94;5041962;28;45398;-62
2021/07/04 04:23:36;;;;;;;;;0.00;0.00;;;;;-144.08;100.00;62200.94;5041662;28;45203;-62
2021/07/04 04:26:04;;;;;;;;;0.00;0.00;;;;;-144.08;100.00;62200.94;5048423;28;45438;-62
2021/07/04 04:28:30;;;;;;;;;0.00;0.00;;;;;-144.08;100.00;62200.94;5030614;28;45262;-63
2021/07/04 04:30:56;;;;;;;;;0.00;0.00;;;;;-144.08;100.00;62200.94;5046483;28;45493;-63
2021/07/04 04:33:21;;;;;;;;;0.00;0.00;;;;;-144.08;100.00;62200.94;5045205;28;45346;-63
2021/07/04 04:35:46;;;;;;;;;0.00;0.00;;;;;-144.08;100.00;62200.94;5041579;28;45231;-63
2021/07/04 04:38:12;;;;;;;;;0.00;0.00;;;;;-144.08;100.00;62200.94;5041630;28;47024;-62
2021/07/04 04:40:37;;;;;;;;;0.00;0.00;;;;;-144.08;100.00;62200.94;5052974;28;45449;-62
2021/07/04 04:43:03;;;;;;;;;0.00;0.00;;;;;-144.08;100.00;62200.94;5040926;28;45597;-62
2021/07/04 04:45:29;;;;;;;;;0.00;0.00;;;;;-144.08;100.00;62200.94;5041480;28;45363;-62
2021/07/04 04:47:54;;;;;;;;;0.00;0.00;;;;;-144.08;100.00;62200.94;5041514;28;45411;-62
2021/07/04 04:50:19;;;;;;;;;0.75;0.00;;;;;-144.08;100.00;62200.94;5041612;28;45439;-63
2021/07/04 04:52:45;;;;;;;;;0.00;0.00;;;;;-144.08;100.00;62200.94;5040980;28;45427;-64
2021/07/04 04:55:11;;;;;;;;;0.00;0.00;;;;;-144.08;100.00;62200.94;5050396;28;45339;-62
2021/07/04 05:04:39;;;;;;;;;;;;;;;-144.08;100.00;62200.94;2595056;28;185019403;-62
2021/07/04 05:14:38;;;;;;;;;0.00;0.00;;;;;-144.08;100.00;62200.94;2;279079616;279079616;-62
2021/07/04 05:19:29;;;;;;;;;0.00;0.00;;;;;-144.08;100.00;62200.94;2;158530369;158530369;-62
2021/07/04 05:26:18;;;;;;;;;0.00;0.00;;;;;-144.08;100.00;62200.94;3;130567938;139589996;-61
2021/07/04 05:30:37;;;;;;;;;;;;;;;-144.08;100.00;62200.94;3;108043539;139558067;-62
2021/07/04 05:33:02;;;;;;;;;0.00;0.00;;;;;-144.08;100.00;62200.94;5097189;28;13426;-62
2021/07/04 05:35:27;;;;;;;;;0.00;0.00;;;;;-144.08;100.00;62200.94;5099391;28;11490;-61
2021/07/04 05:37:54;;;;;;;;;0.00;0.00;;;;;-144.08;100.00;62200.94;5099429;28;8995;-62
2021/07/04 05:40:19;;;;;;;;;0.00;0.00;;;;;-144.08;100.00;62200.94;5099379;28;8821;-62
2021/07/04 05:42:44;;;;;;;;;0.00;0.00;;;;;-144.08;100.00;62200.94;5098834;28;11542;-62
2021/07/04 05:45:15;;;;;;;;;0.00;0.00;;;;;-144.08;100.00;62200.94;5080686;28;9858;-62
2021/07/04 05:47:41;;;;;;;;;0.00;0.00;;;;;-144.08;100.00;62200.94;5099343;28;8791;-61
2021/07/04 05:50:07;;;;;;;;;0.00;0.00;;;;;-144.08;100.00;62200.94;5099196;28;11495;-62
2021/07/04 05:55:11;;;;;;;;;;;;;;;-144.08;100.00;62200.94;1217182;28;130553046;-62
2021/07/04 05:57:36;;;;;;;;;0.00;0.00;;;;;-144.08;100.00;62200.94;1482140;28;55076079;-62
2021/07/04 06:00:05;;;;;;;;;0.00;0.00;;;;;-144.08;100.00;62200.94;5077367;28;11413;-62
2021/07/04 06:02:30;;;;;;;;;0.00;0.00;;;;;-144.08;100.00;62200.94;5078719;28;8802;-60
2021/07/04 06:04:55;;;;;;;;;0.00;0.00;;;;;-144.08;100.00;62200.94;5077755;28;11623;-61
2021/07/04 06:07:21;;;;;;;;;0.00;0.00;;;;;-144.08;100.00;62200.94;5098584;28;9557;-62
2021/07/04 06:09:46;;;;;;;;;0.00;0.00;;;;;-144.08;100.00;62200.94;5098616;28;10392;-62
2021/07/04 06:12:11;;;;;;;;;0.00;0.00;;;;;-144.08;100.00;62200.94;5098700;28;8799;-62
2021/07/04 06:14:37;;;;;;;;;0.00;0.00;;;;;-144.08;100.00;62200.94;5098452;28;8843;-63
2021/07/04 06:17:03;;;;;;;;;0.00;0.00;;;;;-144.08;100.00;62200.94;5098578;28;8826;-63
2021/07/04 06:19:29;;;;;;;;;0.00;0.00;;;;;-144.08;100.00;62200.94;5098630;28;11487;-62
2021/07/04 06:21:54;;;;;;;;;0.00;0.00;;;;;-144.08;100.00;62200.94;5098695;28;8807;-62
2021/07/04 06:24:19;;;;;;;;;0.00;0.00;;;;;-144.08;100.00;62200.94;5098155;28;8819;-62
2021/07/04 06:26:45;;;;;;;;;0.00;0.00;;;;;-144.08;100.00;62200.94;5098263;28;8846;-62
2021/07/04 06:29:10;;;;;;;;;0.00;0.00;;;;;-144.08;100.00;62200.94;5098280;28;8839;-62
2021/07/04 06:31:35;;;;;;;;;0.00;0.00;;;;;-144.08;100.00;62200.94;5080022;28;8939;-61
2021/07/04 06:34:01;;;;;;;;;0.00;0.00;;;;;-144.08;100.00;62200.94;5098451;28;8905;-62
2021/07/04 06:36:27;;;;;;;;;0.00;0.00;;;;;-144.08;100.00;62200.94;5079404;28;8826;-62
2021/07/04 06:38:56;;;;;;;;;0.00;0.00;;;;;-144.08;100.00;62200.94;5098554;28;8837;-63
2021/07/04 06:41:22;;;;;;;;;0.00;0.00;;;;;-144.08;100.00;62200.94;5097673;28;11448;-62
2021/07/04 06:43:47;;;;;;;;;0.00;0.00;;;;;-144.08;100.00;62200.94;5097917;28;11507;-63
2021/07/04 06:46:13;;;;;;;;;0.00;0.00;;;;;-144.08;100.00;62200.94;5098263;28;8880;-63
2021/07/04 06:48:39;;;;;;;;;0.00;0.00;;;;;-144.08;100.00;62200.94;5098396;28;8906;-62
2021/07/04 06:51:05;;;;;;;;;0.00;0.00;;;;;-144.08;100.00;62200.94;5097732;28;9588;-62
2021/07/04 06:53:31;;;;;;;;;0.00;0.00;;;;;-144.08;100.00;62200.94;5098179;28;9751;-61
2021/07/04 06:55:56;;;;;;;;;0.00;0.00;;;;;-144.08;100.00;62200.94;5094546;28;11565;-62
2021/07/04 06:58:22;;;;;;;;;0.00;0.00;;;;;-144.08;100.00;62200.94;5077627;28;9587;-61
2021/07/04 07:00:48;;;;;;;;;0.00;0.00;;;;;-144.08;100.00;62200.94;4942837;28;3101426;-62
2021/07/04 07:03:13;;;;;;;;;0.00;0.00;;;;;-144.08;100.00;62200.94;5046199;28;45430;-62
2021/07/04 07:05:38;;;;;;;;;0.00;0.00;;;;;-144.08;100.00;62200.94;5047230;28;45308;-62
2021/07/04 07:08:04;;;;;;;;;0.00;0.00;;;;;-144.08;100.00;62200.94;5042741;28;45488;-62
2021/07/04 07:10:29;;;;;;;;;0.75;0.75;;;;;-144.08;100.00;62200.94;5050345;28;45314;-61
2021/07/04 07:12:55;;;;;;;;;0.00;0.00;;;;;-144.08;100.00;62200.94;5042471;28;45378;-62
2021/07/04 07:15:21;;;;;;;;;0.00;0.00;;;;;-144.08;100.00;62200.94;5042436;28;45256;-62
2021/07/04 07:17:46;;;;;;;;;0.00;0.00;;;;;-144.08;100.00;62200.94;5042577;28;45447;-62
2021/07/04 07:20:13;;;;;;;;;1.00;1.00;;;;;-144.08;100.00;62200.94;5024635;28;45376;-62
2021/07/04 07:22:38;;;;;;;;;0.00;0.00;;;;;-144.08;100.00;62200.94;5042365;28;45567;-62
2021/07/04 07:25:05;;;;;;;;;0.00;0.00;;;;;-144.08;100.00;62200.94;5041938;28;45174;-62
2021/07/04 07:27:30;;;;;;;;;1.50;1.50;;;;;-144.08;100.00;62200.94;5042381;28;45285;-62
2021/07/04 07:29:56;;;;;;;;;3.75;3.75;;;;;-144.08;100.00;62200.94;5042083;28;45680;-62
2021/07/04 07:32:21;;;;;;;;;0.00;0.00;;;;;-144.08;100.00;62200.94;5042140;28;45307;-61
2021/07/04 07:34:46;;;;;;;;;0.00;0.00;;;;;-144.08;100.00;62200.94;5034339;28;45345;-63
2021/07/04 07:37:13;;;;;;;;;0.00;0.00;;;;;-144.08;100.00;62200.94;5042108;28;45151;-62
2021/07/04 07:39:39;;;;;;;;;0.00;0.00;;;;;-144.08;100.00;62200.94;5041490;28;45479;-63
2021/07/04 07:42:04;;;;;;;;;0.00;0.00;;;;;-144.08;100.00;62200.94;5041744;28;45379;-63
2021/07/04 07:44:30;;;;;;;;;0.00;0.00;;;;;-144.08;100.00;62200.94;5041816;28;45309;-62
2021/07/04 07:46:55;;;;;;;;;0.00;0.00;;;;;-144.08;100.00;62200.94;5042135;28;45312;-63
2021/07/04 07:49:20;;;;;;;;;0.00;0.00;;;;;-144.08;100.00;62200.94;5041858;28;45512;-63
2021/07/04 07:51:49;;;;;;;;;0.00;0.00;;;;;-144.08;100.00;62200.94;5041225;28;46425;-62
2021/07/04 07:54:16;;;;;;;;;0.00;0.00;;;;;-144.08;100.00;62200.94;5042754;28;45470;-62
2021/07/04 07:56:41;;;;;;;;;0.00;0.00;;;;;-144.08;100.00;62200.94;5053262;28;45288;-62
2021/07/04 07:59:06;;;;;;;;;0.00;0.00;;;;;-144.08;100.00;62200.94;5041540;28;45391;-62
2021/07/04 08:01:32;;;;;;;;;0.00;0.00;;;;;-144.08;100.00;62200.94;5041360;28;46408;-62
2021/07/04 08:03:57;;;;;;;;;0.00;0.00;;;;;-144.08;100.00;62200.94;5049019;28;45450;-62
2021/07/04 08:06:22;;;;;;;;;0.00;0.00;;;;;-144.08;100.00;62200.94;5042038;28;45446;-62
2021/07/04 08:08:48;;;;;;;;;0.00;0.00;;;;;-144.08;100.00;62200.94;5041554;28;45275;-62
2021/07/04 08:11:13;;;;;;;;;0.00;0.00;;;;;-144.08;100.00;62200.94;5040921;28;45374;-63
2021/07/04 08:13:39;;;;;;;;;0.00;0.00;;;;;-144.08;100.00;62200.94;5041031;28;45344;-63
2021/07/04 08:16:04;;;;;;;;;0.00;0.00;;;;;-144.08;100.00;62200.94;5041752;28;45328;-62
2021/07/04 08:18:30;;;;;;;;;0.00;0.00;;;;;-144.08;100.00;62200.94;5041328;28;45488;-62
2021/07/04 08:20:55;;;;;;;;;0.00;0.00;;;;;-144.08;100.00;62200.94;5041251;28;45349;-61
2021/07/04 08:23:21;;;;;;;;;0.00;0.00;;;;;-144.08;100.00;62200.94;5023156;28;45309;-63
2021/07/04 08:25:47;;;;;;;;;0.00;0.00;;;;;-144.08;100.00;62200.94;5041359;28;45258;-62
2021/07/04 08:28:12;;;;;;;;;0.00;0.00;;;;;-144.08;100.00;62200.94;5041229;28;45457;-62
2021/07/04 08:30:38;;;;;;;;;0.00;0.00;;;;;-144.08;100.00;62200.94;5026753;28;46505;-62
2021/07/04 08:33:04;;;;;;;;;0.00;0.00;;;;;-144.08;100.00;62200.94;5040963;28;45261;-62
2021/07/04 08:35:30;;;;;;;;;0.00;0.00;;;;;-144.08;100.00;62200.94;5041123;28;45164;-63
2021/07/04 08:37:55;;;;;;;;;0.00;0.00;;;;;-144.08;100.00;62200.94;5041429;28;45336;-62
2021/07/04 08:40:21;;;;;;;;;0.00;0.00;;;;;-144.08;100.00;62200.94;5040756;28;45188;-63
2021/07/04 08:42:46;;;;;;;;;0.00;0.00;;;;;-144.08;100.00;62200.94;5033282;28;45249;-62
2021/07/04 08:45:12;;;;;;;;;2.00;1.00;;;;;-144.08;100.00;62200.94;5041076;28;45272;-63
2021/07/04 08:47:38;;;;;;;;;0.00;0.00;;;;;-144.08;100.00;62200.94;5040965;28;45537;-63
2021/07/04 08:50:04;;;;;;;;;0.00;0.00;;;;;-144.08;100.00;62200.94;5040958;28;45547;-62
2021/07/04 08:52:30;;;;;;;;;0.00;0.00;;;;;-144.08;100.00;62200.94;5040413;28;45434;-62
2021/07/04 08:54:55;;;;;;;;;0.00;0.00;;;;;-144.08;100.00;62200.94;5029542;28;45400;-62
2021/07/04 08:57:21;;;;;;;;;0.00;0.00;;;;;-144.08;100.00;62200.94;5046276;28;45339;-63
2021/07/04 08:59:48;;;;;;;;;0.00;0.00;;;;;-144.08;100.00;62200.94;5040016;28;45308;-62
2021/07/04 09:02:27;;;;;;;;;0.00;0.00;;;;;-144.08;100.00;62200.94;5040664;28;45316;-63
2021/07/04 09:05:10;;;;;;;;;0.00;0.00;;;;;-144.08;100.00;62200.94;5039330;28;45459;-62
2021/07/04 09:07:38;;;;;;;;;0.00;0.00;;;;;-144.08;100.00;62200.94;5040674;28;45217;-63
2021/07/04 09:10:07;;;;;;;;;0.00;0.00;;;;;-144.08;100.00;62200.94;5040034;28;45486;-63
2021/07/04 09:12:45;;;;;;;;;0.00;0.00;;;;;-144.08;100.00;62200.94;5039698;28;45336;-63
2021/07/04 09:15:18;;;;;;;;;0.00;0.00;;;;;-144.08;100.00;62200.94;5040065;28;45268;-63
2021/07/04 09:17:47;;;;;;;;;0.00;0.00;;;;;-144.08;100.00;62200.94;5040696;28;45276;-63
2021/07/04 09:20:16;;;;;;;;;0.00;0.00;;;;;-144.08;100.00;62200.94;5039996;28;45236;-63
2021/07/04 09:22:45;;;;;;;;;0.00;0.00;;;;;-144.08;100.00;62200.94;5040445;28;45420;-63
2021/07/04 09:25:12;;;;;;;;;0.00;0.00;;;;;-144.08;100.00;62200.94;5039656;28;45221;-63
2021/07/04 09:27:39;;;;;;;;;0.00;0.00;;;;;-144.08;100.00;62200.94;5045379;28;45226;-64
2021/07/04 09:30:09;;;;;;;;;0.00;0.00;;;;;-144.08;100.00;62200.94;5021881;28;47484;-64
2021/07/04 09:32:34;;;;;;;;;0.00;0.00;;;;;-144.08;100.00;62200.94;5040198;28;45245;-64
2021/07/04 09:35:10;;;;;;;;;0.00;0.00;;;;;-144.08;100.00;62200.94;5030663;28;45211;-63
2021/07/04 09:37:41;;;;;;;;;0.00;0.00;;;;;-144.08;100.00;62200.94;5042180;28;45257;-64
2021/07/04 09:40:27;;;;;;;;;0.00;0.00;;;;;-144.08;100.00;62200.94;5059375;28;45499;-64
2021/07/04 09:42:57;;;;;;;;;4.00;2.75;;;;;-144.08;100.00;62200.94;5059424;28;45369;-64
2021/07/04 09:45:24;;;;;;;;;0.00;0.00;;;;;-144.08;100.00;62200.94;5060106;28;45343;-64
2021/07/04 09:47:59;;;;;;;;;0.00;0.00;;;;;-144.08;100.00;62200.94;5041339;28;45517;-64
2021/07/04 09:50:25;;;;;;;;;0.00;0.00;;;;;-144.08;100.00;62200.94;5059946;28;45826;-64
2021/07/04 09:53:02;;;;;;;;;0.00;0.00;;;;;-144.08;100.00;62200.94;5059357;28;45402;-64
2021/07/04 09:55:29;;;;;;;;;0.00;0.00;;;;;-144.08;100.00;62200.94;5058286;28;45549;-63
2021/07/04 09:57:58;;;;;;;;;0.00;0.00;;;;;-144.08;100.00;62200.94;5022624;28;45323;-64
2021/07/04 10:00:26;;;;;;;;;0.00;0.00;;;;;-144.08;100.00;62200.94;5039346;28;45539;-63
2021/07/04 10:03:08;;;;;;;;;0.00;0.00;;;;;-144.08;100.00;62200.94;5039567;28;45345;-64
2021/07/04 10:05:33;;;;;;;;;0.00;0.00;;;;;-144.08;100.00;62200.94;5026359;28;45325;-63
2021/07/04 10:07:59;;;;;;;;;0.00;0.00;;;;;-144.08;100.00;62200.94;5039978;28;45325;-63
2021/07/04 10:10:24;;;;;;;;;0.00;0.00;;;;;-144.08;100.00;62200.94;5038529;28;46557;-63
2021/07/04 10:12:53;;;;;;;;;0.00;0.00;;;;;-144.08;100.00;62200.94;5042048;28;45405;-63
2021/07/04 10:15:18;;;;;;;;;0.00;0.00;;;;;-144.08;100.00;62200.94;5042522;28;45308;-63
2021/07/04 10:17:44;;;;;;;;;0.00;0.00;;;;;-144.08;100.00;62200.94;5042772;28;45224;-64
2021/07/04 10:20:11;;;;;;;;;0.00;0.00;;;;;-144.08;100.00;62200.94;5042554;28;46328;-63
2021/07/04 10:22:37;;;;;;;;;0.00;0.00;;;;;-144.08;100.00;62200.94;5042468;28;45276;-63
2021/07/04 10:25:05;;;;;;;;;0.00;0.00;;;;;-144.08;100.00;62200.94;5042978;28;45363;-64
2021/07/04 10:27:37;;;;;;;;;0.25;0.00;;;;;-144.08;100.00;62200.94;5024841;28;45617;-64
2021/07/04 10:30:05;;;;;;;;;0.00;0.00;;;;;-144.08;100.00;62200.94;5049761;28;45258;-64
2021/07/04 10:32:30;;;;;;;;;0.00;0.00;;;;;-144.08;100.00;62200.94;5042586;28;45446;-63
2021/07/04 10:35:09;;;;;;;;;0.00;0.00;;;;;-144.08;100.00;62200.94;5042566;28;45315;-64
2021/07/04 10:37:39;;;;;;;;;0.00;0.00;;;;;-144.08;100.00;62200.94;5042753;28;45260;-63
2021/07/04 10:40:10;;;;;;;;;0.00;0.00;;;;;-144.08;100.00;62200.94;5041713;28;46247;-64
2021/07/04 10:42:37;;;;;;;;;0.00;0.00;;;;;-144.08;100.00;62200.94;5041773;28;45192;-63
2021/07/04 10:45:03;;;;;;;;;0.00;0.00;;;;;-144.08;100.00;62200.94;5041952;28;45282;-62
2021/07/04 10:47:35;;;;;;;;;0.00;0.00;;;;;-144.08;100.00;62200.94;5042063;28;45268;-63
2021/07/04 10:50:06;;;;;;;;;0.00;0.00;;;;;-144.08;100.00;62200.94;5048930;28;45201;-64
2021/07/04 10:52:51;;;;;;;;;0.00;0.00;;;;;-144.08;100.00;62200.94;5043562;28;45397;-63
2021/07/04 10:55:37;;;;;;;;;0.00;0.00;;;;;-144.08;100.00;62200.94;5061003;28;45390;-64
2021/07/04 10:58:04;;;;;;;;;0.00;0.00;;;;;-144.08;100.00;62200.94;5041808;28;45474;-64
2021/07/04 11:00:43;;;;;;;;;0.00;0.00;;;;;-144.08;100.00;62200.94;5033642;28;47185;-64
2021/07/04 11:03:25;;;;;;;;;0.00;0.00;;;;;-144.08;100.00;62200.94;5044686;28;45385;-64
2021/07/04 11:05:51;;;;;;;;;0.00;0.00;;;;;-144.08;100.00;62200.94;5045033;28;45272;-64
2021/07/04 11:08:26;;;;;;;;;0.00;0.00;;;;;-144.08;100.00;62200.94;5024585;28;45273;-64
2021/07/04 11:11:03;;;;;;;;;0.00;0.00;;;;;-144.08;100.00;62200.94;5038872;28;47468;-64
2021/07/04 11:13:30;;;;;;;;;0.00;0.00;;;;;-144.08;100.00;62200.94;5041861;28;45460;-63
2021/07/04 11:16:08;;;;;;;;;0.00;0.00;;;;;-144.08;100.00;62200.94;5030782;28;45406;-63
2021/07/04 11:18:49;;;;;;;;;0.00;0.00;;;;;-144.08;100.00;62200.94;5062476;28;45375;-64
2021/07/04 11:21:18;;;;;;;;;0.00;0.00;;;;;-144.08;100.00;62200.94;5043543;28;47554;-64
2021/07/04 11:23:44;;;;;;;;;0.00;0.00;;;;;-144.08;100.00;62200.94;5061792;28;45269;-63
2021/07/04 11:26:12;;;;;;;;;0.00;0.00;;;;;-144.08;100.00;62200.94;5062050;28;45212;-63
2021/07/04 11:28:49;;;;;;;;;0.00;0.00;;;;;-144.08;100.00;62200.94;5062129;28;45141;-63
2021/07/04 11:31:17;;;;;;;;;0.00;0.00;;;;;-144.08;100.00;62200.94;5062209;28;45343;-63
2021/07/04 11:33:48;;;;;;;;;0.00;0.00;;;;;-144.08;100.00;62200.94;5043495;28;45324;-63
2021/07/04 11:36:16;;;;;;;;;0.00;0.00;;;;;-144.08;100.00;62200.94;5061968;28;45357;-63
2021/07/04 11:38:49;;;;;;;;;0.00;0.00;;;;;-144.08;100.00;62200.94;5062318;28;45465;-64
2021/07/04 11:41:19;;;;;;;;;0.00;0.00;;;;;-144.08;100.00;62200.94;5061281;28;45587;-63